Time;durP1;ratioP1;P1;durP2;ratioP2;P2;SDS_P1;SDS_P2;PMS_P1;PMS_P2;Temp;Humidity;BMP_temperature;BMP_pressure;BME280_temperature;BME280_humidity;BME280_pressure;Samples;Min_cycle;Max_cycle;Signal;HPM_P1;HPM_P2
2022/06/14 00:02:31;;;;;;;6.20;4.22;;;;;;;26.11;54.26;100968.75;5105006;28;20052;-79
2022/06/14 00:04:58;;;;;;;4.32;3.97;;;;;;;26.10;54.12;100967.06;5098999;28;20048;-79
2022/06/14 00:07:25;;;;;;;4.40;4.00;;;;;;;26.11;54.11;100965.19;5096672;28;20043;-79
2022/06/14 00:09:52;;;;;;;4.57;3.72;;;;;;;26.12;54.15;100969.59;5096342;28;20047;-79
2022/06/14 00:12:20;;;;;;;5.85;4.15;;;;;;;26.12;54.37;100966.88;5096832;28;20052;-79
2022/06/14 00:14:47;;;;;;;6.43;3.92;;;;;;;26.11;54.25;100976.88;5097518;28;20460;-79
2022/06/14 00:17:15;;;;;;;5.88;4.43;;;;;;;26.12;54.17;100973.16;5097207;28;20399;-80
2022/06/14 00:19:42;;;;;;;4.60;4.18;;;;;;;26.11;54.10;100985.03;5097675;28;20044;-79
2022/06/14 00:22:10;;;;;;;5.30;4.45;;;;;;;26.13;54.19;100980.28;5096552;28;20048;-79
2022/06/14 00:24:38;;;;;;;5.72;4.40;;;;;;;26.12;54.37;100985.88;5096552;28;20391;-79
2022/06/14 00:27:05;;;;;;;5.80;4.43;;;;;;;26.12;53.99;100983.16;5096492;28;20047;-79
2022/06/14 00:29:33;;;;;;;6.07;3.88;;;;;;;26.12;54.22;100978.56;5097331;28;20051;-79
2022/06/14 00:32:00;;;;;;;6.65;4.15;;;;;;;26.13;54.11;100982.16;5096991;28;20511;-79
2022/06/14 00:34:27;;;;;;;4.15;3.75;;;;;;;26.13;54.20;100987.59;5096136;28;20403;-79
2022/06/14 00:36:56;;;;;;;5.10;4.00;;;;;;;26.13;54.20;100990.31;5097479;28;20048;-79
2022/06/14 00:39:23;;;;;;;4.72;4.32;;;;;;;26.12;54.31;100994.84;5096736;28;20066;-79
2022/06/14 00:41:54;;;;;;;4.60;3.95;;;;;;;26.13;54.25;100991.16;5094401;28;20062;-78
2022/06/14 00:44:28;;;;;;;5.82;4.07;;;;;;;26.13;54.28;101002.00;5096887;28;20048;-79
2022/06/14 00:46:59;;;;;;;4.60;4.20;;;;;;;26.13;54.16;100999.28;5096763;28;20055;-78
2022/06/14 00:49:34;;;;;;;4.72;4.28;;;;;;;26.12;54.17;100992.13;5096496;28;20044;-80
2022/06/14 00:52:24;;;;;;;4.28;3.88;;;;;;;26.12;54.12;101000.28;5097442;28;20048;-81
2022/06/14 00:54:58;;;;;;;4.50;4.10;;;;;;;26.13;54.44;101004.72;5094146;28;20487;-82
2022/06/14 00:57:49;;;;;;;7.25;4.35;;;;;;;26.13;54.19;100996.56;5095457;28;20036;-81
2022/06/14 01:00:20;;;;;;;4.65;4.22;;;;;;;26.13;54.33;100991.16;5097642;28;20472;-81
2022/06/14 01:02:54;;;;;;;4.63;4.13;;;;;;;26.14;54.29;101003.69;5096142;28;20044;-82
2022/06/14 01:05:27;;;;;;;5.05;4.30;;;;;;;26.13;54.35;100999.28;5097685;28;20387;-83
2022/06/14 01:07:57;;;;;;;4.57;4.18;;;;;;;26.14;54.39;101002.84;5096461;28;20047;-82
2022/06/14 01:10:30;;;;;;;5.60;4.13;;;;;;;26.13;54.35;100996.56;5096786;28;20044;-81
2022/06/14 01:13:01;;;;;;;4.50;3.95;;;;;;;26.13;54.50;100998.44;5096693;28;20055;-82
2022/06/14 01:15:32;;;;;;;4.80;4.03;;;;;;;26.12;54.26;101013.84;5096831;28;20048;-83
2022/06/14 01:18:05;;;;;;;5.22;4.10;;;;;;;26.13;54.28;101007.44;5097694;28;20486;-82
2022/06/14 01:20:34;;;;;;;;;;;;;;;26.14;54.42;101017.25;5096061;28;20422;-82
2022/06/14 01:23:03;;;;;;;4.45;4.05;;;;;;;26.14;54.50;101014.53;5096917;28;19924;-81
2022/06/14 01:25:35;;;;;;;4.65;3.65;;;;;;;26.14;54.31;101017.25;5097222;28;20047;-81
2022/06/14 01:28:04;;;;;;;4.70;4.30;;;;;;;26.13;54.48;101012.84;5078853;28;20048;-81
2022/06/14 01:30:35;;;;;;;4.82;4.40;;;;;;;26.14;54.38;101017.25;5095849;28;20118;-81
2022/06/14 01:33:11;;;;;;;4.95;4.45;;;;;;;26.14;54.51;101017.25;5096794;28;20052;-81
2022/06/14 01:35:42;;;;;;;4.70;4.20;;;;;;;26.14;54.67;101030.81;5096035;28;20044;-79
2022/06/14 01:38:13;;;;;;;4.93;4.00;;;;;;;26.13;54.65;101026.41;5094525;28;20051;-81
2022/06/14 01:40:59;;;;;;;5.20;3.92;;;;;;;26.15;54.57;101034.38;5095842;28;20055;-80
2022/06/14 01:43:57;;;;;;;4.38;3.97;;;;;;;26.15;54.37;101034.38;5094444;28;20055;-81
2022/06/14 01:46:26;;;;;;;5.30;3.67;;;;;;;26.15;54.64;101028.94;5095892;28;20052;-81
2022/06/14 01:52:24;;;;;;;3.80;3.50;;;;;;;26.15;54.57;101034.38;5094420;28;20059;-81
2022/06/14 01:54:57;;;;;;;4.88;4.20;;;;;;;26.16;54.66;101035.22;5096057;28;20104;-79
2022/06/14 01:57:25;;;;;;;4.85;4.03;;;;;;;26.15;54.75;101034.38;5095775;28;20044;-79
2022/06/14 01:59:57;;;;;;;4.80;4.13;;;;;;;26.16;54.94;101035.22;5095511;28;20048;-79
2022/06/14 02:02:25;;;;;;;4.35;3.95;;;;;;;26.15;54.84;101037.09;5094769;28;20040;-79
2022/06/14 02:05:10;;;;;;;4.93;4.43;;;;;;;26.16;54.93;101046.06;5094118;28;20058;-80
2022/06/14 02:07:54;;;;;;;5.00;4.18;;;;;;;26.14;54.99;101033.53;5093842;28;20043;-80
2022/06/14 02:10:34;;;;;;;6.32;3.92;;;;;;;26.15;54.84;101047.94;5094321;28;20098;-79
2022/06/14 02:13:25;;;;;;;4.22;3.83;;;;;;;26.16;55.02;101040.66;5094620;28;20063;-80
2022/06/14 02:16:03;;;;;;;4.30;3.78;;;;;;;26.15;54.92;101050.66;5096816;28;20055;-80
2022/06/14 02:18:33;;;;;;;6.72;4.00;;;;;;;26.15;54.99;101058.78;5096023;28;20564;-80
2022/06/14 02:21:08;;;;;;;4.72;4.32;;;;;;;26.17;55.07;101058.63;5095859;28;20144;-80
2022/06/14 02:23:41;;;;;;;4.75;4.35;;;;;;;26.15;55.14;101047.94;5096346;28;20048;-80
2022/06/14 02:26:17;;;;;;;5.18;4.45;;;;;;;26.15;55.10;101058.78;5095230;28;20044;-80
2022/06/14 02:28:50;;;;;;;5.05;4.60;;;;;;;26.16;55.10;101059.63;5093886;28;20047;-80
2022/06/14 02:31:24;;;;;;;4.45;3.95;;;;;;;26.16;55.11;101059.63;5094869;28;20040;-80
2022/06/14 02:34:00;;;;;;;5.13;4.60;;;;;;;26.15;55.22;101061.50;5094631;28;20046;-79
2022/06/14 02:36:57;;;;;;;5.28;4.78;;;;;;;26.16;55.39;101067.78;5094314;28;20048;-79
2022/06/14 02:39:31;;;;;;;4.82;4.32;;;;;;;26.15;55.52;101061.50;5093771;28;20056;-79
2022/06/14 02:42:25;;;;;;;4.80;4.20;;;;;;;26.16;55.28;101067.78;5093771;28;20048;-78
2022/06/14 02:45:05;;;;;;;5.15;4.70;;;;;;;26.15;55.57;101058.78;5095095;28;20058;-79
2022/06/14 02:47:47;;;;;;;5.07;4.10;;;;;;;26.16;55.38;101070.50;5092606;28;20048;-80
2022/06/14 02:50:21;;;;;;;4.47;4.07;;;;;;;26.14;55.63;101074.22;5093906;28;20055;-79
2022/06/14 02:52:57;;;;;;;5.43;4.40;;;;;;;26.14;55.58;101068.81;5094568;28;20044;-79
2022/06/14 02:55:39;;;;;;;4.78;4.38;;;;;;;26.15;55.65;101069.66;5093881;28;20040;-80
2022/06/14 02:58:30;;;;;;;4.78;4.20;;;;;;;26.14;55.70;101084.25;5093121;28;20040;-81
2022/06/14 03:01:15;;;;;;;6.68;4.00;;;;;;;26.16;55.60;101081.34;5094437;28;20048;-82
2022/06/14 03:03:59;;;;;;;4.63;4.03;;;;;;;26.14;55.67;101089.69;5095065;28;20059;-80
2022/06/14 03:06:42;;;;;;;4.38;3.97;;;;;;;26.15;55.49;101085.94;5095539;28;20048;-82
2022/06/14 03:09:18;;;;;;;4.65;4.25;;;;;;;26.15;55.38;101091.34;5093858;28;20043;-82
2022/06/14 03:12:05;;;;;;;4.80;4.25;;;;;;;26.15;55.37;101094.06;5094997;28;20406;-82
2022/06/14 03:15:03;;;;;;;4.07;3.78;;;;;;;26.15;55.40;101099.50;5094578;28;20043;-82
2022/06/14 03:17:52;;;;;;;4.70;4.22;;;;;;;26.14;55.32;101101.38;5094260;28;20062;-80
2022/06/14 03:20:34;;;;;;;4.53;4.10;;;;;;;26.15;55.42;101107.66;5095147;28;20486;-81
2022/06/14 03:23:20;;;;;;;4.82;4.32;;;;;;;26.15;55.43;101110.34;5093198;28;20411;-80
2022/06/14 03:26:05;;;;;;;5.03;4.55;;;;;;;26.14;55.32;101103.25;5094634;28;20048;-80
2022/06/14 03:28:48;;;;;;;5.28;4.78;;;;;;;26.14;55.33;101112.22;5076869;28;20048;-81
2022/06/14 03:31:21;;;;;;;5.25;4.53;;;;;;;26.14;55.51;101117.66;5093815;28;20051;-81
2022/06/14 03:33:53;;;;;;;5.15;4.30;;;;;;;26.13;55.29;101110.53;5095803;28;20348;-81
2022/06/14 03:36:21;;;;;;;5.03;4.63;;;;;;;26.14;55.48;101114.09;5095782;28;20044;-81
2022/06/14 03:38:53;;;;;;;5.13;4.50;;;;;;;26.13;55.53;101112.41;5094014;28;20044;-82
2022/06/14 03:41:25;;;;;;;5.27;4.77;;;;;;;26.13;55.98;101107.81;5092358;28;20052;-82
2022/06/14 03:43:57;;;;;;;5.50;5.00;;;;;;;26.13;55.92;101106.97;5094583;28;20051;-82
2022/06/14 03:46:30;;;;;;;4.93;4.40;;;;;;;26.12;55.89;101114.25;5094542;28;20048;-82
2022/06/14 03:49:11;;;;;;;4.80;4.40;;;;;;;26.12;55.81;101119.66;5094873;28;20398;-81
2022/06/14 03:51:55;;;;;;;5.68;5.03;;;;;;;26.13;55.96;101117.84;5094068;28;20059;-81
2022/06/14 03:54:58;;;;;;;5.90;4.93;;;;;;;26.13;55.89;101110.53;5094544;28;20052;-81
2022/06/14 03:58:13;;;;;;;5.18;4.55;;;;;;;26.12;55.88;101122.38;5081713;28;20063;-80
2022/06/14 04:00:52;;;;;;;5.30;4.80;;;;;;;26.13;55.78;101128.69;5071982;28;20056;-82
2022/06/14 04:03:43;;;;;;;5.45;4.95;;;;;;;26.12;55.91;101130.53;5059247;28;20095;-81
2022/06/14 04:06:16;;;;;;;4.88;4.47;;;;;;;26.12;55.90;101125.09;5076607;28;20056;-82
2022/06/14 04:09:14;;;;;;;6.45;4.85;;;;;;;26.13;55.86;101128.69;5075584;28;20400;-82
2022/06/14 04:11:59;;;;;;;4.93;4.40;;;;;;;26.12;55.81;101133.25;5075758;28;20527;-82
2022/06/14 04:15:00;;;;;;;5.55;5.07;;;;;;;26.12;55.98;101130.53;5075430;28;20064;-82
2022/06/14 04:17:40;;;;;;;4.60;4.20;;;;;;;26.11;55.72;101139.69;5058717;28;20068;-83
2022/06/14 04:20:10;;;;;;;6.30;4.43;;;;;;;26.11;55.95;101139.69;5076114;28;20543;-81
2022/06/14 04:22:53;;;;;;;5.10;4.68;;;;;;;26.12;56.00;101143.25;5075397;28;20052;-82
2022/06/14 04:25:20;;;;;;;6.70;4.97;;;;;;;26.12;55.79;101144.09;5059227;28;20072;-82
2022/06/14 04:28:17;;;;;;;5.75;5.22;;;;;;;26.11;55.77;101147.84;5075065;28;20044;-82
2022/06/14 04:31:01;;;;;;;4.72;4.32;;;;;;;26.12;55.82;101148.69;5074552;28;20056;-82
2022/06/14 04:33:54;;;;;;;5.60;5.10;;;;;;;26.11;55.90;101155.97;5073954;28;20075;-82
2022/06/14 04:36:29;;;;;;;7.95;5.20;;;;;;;26.10;55.91;101154.28;5078123;28;20060;-82
2022/06/14 04:39:04;;;;;;;5.78;4.53;;;;;;;26.11;55.94;101157.84;5097893;28;20052;-82
2022/06/14 04:41:39;;;;;;;5.03;4.63;;;;;;;26.11;55.89;101160.56;5097629;28;20066;-82
2022/06/14 04:44:17;;;;;;;5.80;5.30;;;;;;;26.11;55.82;101161.41;5098272;28;20044;-81
2022/06/14 04:46:58;;;;;;;4.78;4.38;;;;;;;26.11;55.87;101168.69;5097697;28;20055;-81
2022/06/14 04:49:33;;;;;;;5.78;4.60;;;;;;;26.11;55.53;101171.41;5097535;28;20051;-81
2022/06/14 04:52:25;;;;;;;5.13;4.63;;;;;;;26.10;55.76;101165.13;5097041;28;20044;-82
2022/06/14 04:55:05;;;;;;;4.82;4.40;;;;;;;26.11;55.54;101165.97;5095116;28;20110;-82
2022/06/14 04:57:43;;;;;;;5.05;4.53;;;;;;;26.10;55.79;101162.44;5097161;28;20047;-82
2022/06/14 05:00:15;;;;;;;5.32;4.60;;;;;;;26.10;55.87;101165.13;5097944;28;20043;-82
2022/06/14 05:03:00;;;;;;;4.97;4.15;;;;;;;26.11;55.79;101163.28;5097539;28;20383;-82
2022/06/14 05:05:50;;;;;;;6.53;5.15;;;;;;;26.12;55.82;101162.25;5096034;28;20048;-82
2022/06/14 05:08:24;;;;;;;5.90;4.22;;;;;;;26.11;55.67;101168.69;5096855;28;20051;-82
2022/06/14 05:11:13;;;;;;;5.72;5.13;;;;;;;26.10;55.60;101165.13;5097440;28;20036;-82
2022/06/14 05:13:58;;;;;;;5.00;4.38;;;;;;;26.10;55.66;101167.84;5096521;28;20048;-82
2022/06/14 05:16:35;;;;;;;6.15;4.53;;;;;;;26.10;55.61;101176.00;5096639;28;20494;-81
2022/06/14 05:19:24;;;;;;;4.75;4.35;;;;;;;26.12;55.80;101164.97;5096749;28;20047;-81
2022/06/14 05:21:55;;;;;;;4.68;4.28;;;;;;;26.11;55.69;101166.81;5096110;28;20048;-81
2022/06/14 05:24:23;;;;;;;4.40;4.00;;;;;;;26.11;55.80;101180.38;5096402;28;20407;-81
2022/06/14 05:27:06;;;;;;;4.95;4.47;;;;;;;26.11;55.82;101172.25;5095336;28;20052;-80
2022/06/14 05:29:42;;;;;;;7.18;4.38;;;;;;;26.11;55.69;101177.69;5095955;28;20056;-81
2022/06/14 05:32:34;;;;;;;4.93;4.40;;;;;;;26.12;55.88;101176.66;5097151;28;20055;-81
2022/06/14 05:35:26;;;;;;;4.95;4.55;;;;;;;26.12;55.69;101186.66;5097759;28;20470;-81
2022/06/14 05:38:10;;;;;;;5.30;4.80;;;;;;;26.12;55.86;101195.66;5096042;28;20048;-79
2022/06/14 05:41:03;;;;;;;7.05;4.50;;;;;;;26.12;55.86;101189.38;5095859;28;20070;-79
2022/06/14 05:43:34;;;;;;;5.93;4.53;;;;;;;26.12;55.90;101182.09;5095155;28;20044;-79
2022/06/14 05:46:13;;;;;;;4.95;4.45;;;;;;;26.13;55.94;101193.81;5095092;28;20044;-78
2022/06/14 05:48:50;;;;;;;5.63;4.60;;;;;;;26.12;55.76;101183.94;5095455;28;20048;-79
2022/06/14 05:51:22;;;;;;;7.40;4.70;;;;;;;26.13;55.91;101186.50;5095209;28;20486;-79
2022/06/14 05:53:52;;;;;;;5.63;5.13;;;;;;;26.14;55.94;101195.50;5094157;28;20392;-79
2022/06/14 05:56:37;;;;;;;5.43;4.63;;;;;;;26.12;56.05;101190.22;5094955;28;20047;-79
2022/06/14 05:59:13;;;;;;;6.28;4.70;;;;;;;26.13;55.95;101197.38;5095255;28;20055;-79
2022/06/14 06:01:57;;;;;;;5.68;4.57;;;;;;;26.13;56.08;101202.81;5095349;28;20463;-79
2022/06/14 06:04:33;;;;;;;5.53;4.35;;;;;;;26.14;55.95;101209.91;5095135;28;20400;-82
2022/06/14 06:07:09;;;;;;;5.80;5.20;;;;;;;26.13;56.09;101210.94;5095314;28;20044;-80
2022/06/14 06:09:43;;;;;;;4.85;4.38;;;;;;;26.14;55.97;101207.19;5095488;28;20391;-81
2022/06/14 06:12:22;;;;;;;5.13;4.60;;;;;;;26.16;55.94;101217.03;5095539;28;20051;-81
2022/06/14 06:15:02;;;;;;;4.80;4.30;;;;;;;26.14;55.95;101217.22;5095027;28;20051;-80
2022/06/14 06:17:53;;;;;;;5.47;4.70;;;;;;;26.14;55.98;101215.34;5095882;28;20472;-82
2022/06/14 06:20:48;;;;;;;4.88;4.47;;;;;;;26.15;55.99;101218.91;5094837;28;20059;-82
2022/06/14 06:23:24;;;;;;;5.32;4.82;;;;;;;26.14;56.18;101220.78;5094681;28;20487;-81
2022/06/14 06:25:56;;;;;;;5.57;5.07;;;;;;;26.16;56.27;101222.47;5094119;28;20044;-81
2022/06/14 06:28:35;;;;;;;4.80;4.40;;;;;;;26.17;56.32;101229.56;5093871;28;20487;-81
2022/06/14 06:31:05;;;;;;;5.47;4.97;;;;;;;26.16;56.79;101225.16;5093908;28;20047;-82
2022/06/14 06:33:36;;;;;;;8.75;7.03;;;;;;;26.17;57.16;101233.16;5094179;28;20048;-80
2022/06/14 06:36:38;;;;;;;8.82;8.02;;;;;;;26.16;57.22;101236.03;5094020;28;20502;-80
2022/06/14 06:39:20;;;;;;;8.88;7.72;;;;;;;26.13;57.55;101229.94;5094036;28;20467;-81
2022/06/14 06:41:54;;;;;;;12.67;9.60;;;;;;;26.12;58.10;101224.66;5094012;28;20070;-83
2022/06/14 06:44:27;;;;;;;10.82;9.77;;;;;;;26.10;58.38;101232.13;5094150;28;20051;-81
2022/06/14 06:47:24;;;;;;;9.57;8.68;;;;;;;26.09;58.50;101231.28;5094470;28;20054;-79
2022/06/14 06:50:08;;;;;;;12.18;9.35;;;;;;;26.10;58.43;101238.41;5091258;28;20048;-79
2022/06/14 06:52:54;;;;;;;12.27;11.07;;;;;;;26.09;58.44;101235.84;5092672;28;20048;-79
2022/06/14 06:55:22;;;;;;;12.07;10.98;;;;;;;26.06;58.61;101239.75;5094223;28;20059;-79
2022/06/14 06:57:53;;;;;;;11.48;10.32;;;;;;;26.06;58.85;101249.75;5093741;28;20047;-79
2022/06/14 07:00:22;;;;;;;11.65;10.55;;;;;;;26.05;58.62;101246.19;5093896;28;20040;-79
2022/06/14 07:03:01;;;;;;;11.23;10.00;;;;;;;26.01;58.69;101244.84;5093070;28;20039;-78
2022/06/14 07:05:29;;;;;;;10.07;8.90;;;;;;;26.01;58.98;101242.13;5093567;28;20055;-79
2022/06/14 07:08:03;;;;;;;9.55;8.55;;;;;;;25.99;58.84;101241.41;5093303;28;20044;-79
2022/06/14 07:10:51;;;;;;;9.90;8.90;;;;;;;26.00;59.05;101245.81;5093378;28;20051;-79
2022/06/14 07:13:33;;;;;;;10.38;8.07;;;;;;;26.00;58.44;101256.69;5093358;28;20040;-79
2022/06/14 07:16:40;;;;;;;9.48;7.63;;;;;;;25.97;58.22;101238.03;5092306;28;20371;-77
2022/06/14 07:19:13;;;;;;;8.80;7.38;;;;;;;25.97;58.56;101245.31;5093541;28;20356;-77
2022/06/14 07:22:06;;;;;;;7.95;6.65;;;;;;;25.94;59.11;101257.34;5093124;28;20044;-79
2022/06/14 07:24:42;;;;;;;8.27;6.18;;;;;;;25.94;59.06;101246.50;5092835;28;20044;-78
2022/06/14 07:27:39;;;;;;;9.60;4.95;;;;;;;25.94;58.74;101251.94;5092933;28;20048;-77
2022/06/14 07:30:09;;;;;;;5.45;4.22;;;;;;;25.92;58.60;101253.94;5093522;28;20055;-78
2022/06/14 07:32:46;;;;;;;7.28;4.28;;;;;;;25.92;58.69;101253.94;5077348;28;20044;-78
2022/06/14 07:35:15;;;;;;;9.38;3.80;;;;;;;25.94;58.69;101245.66;5074360;28;20408;-78
2022/06/14 07:37:56;;;;;;;9.90;4.05;;;;;;;25.95;58.89;101244.63;5075974;28;20056;-78
2022/06/14 07:40:43;;;;;;;6.35;3.97;;;;;;;25.97;59.20;101248.00;5076526;28;20048;-79
2022/06/14 07:43:23;;;;;;;6.63;4.13;;;;;;;25.98;59.22;101245.16;5076698;28;20040;-78
2022/06/14 07:45:51;;;;;;;4.38;3.33;;;;;;;26.01;59.18;101252.09;5076670;28;20400;-81
2022/06/14 07:48:30;;;;;;;6.10;3.63;;;;;;;26.03;58.89;101244.66;5076672;28;20056;-77
2022/06/14 07:51:05;;;;;;;8.82;3.97;;;;;;;26.04;59.05;101244.47;5076386;28;20057;-78
2022/06/14 07:53:39;;;;;;;11.20;3.97;;;;;;;26.07;58.98;101241.44;5076968;28;20052;-79
2022/06/14 07:56:17;;;;;;;8.25;3.83;;;;;;;26.08;58.79;101250.41;5076910;28;20053;-79
2022/06/14 07:58:47;;;;;;;7.72;4.22;;;;;;;26.11;59.13;101252.81;5075455;28;20088;-78
2022/06/14 08:01:21;;;;;;;9.00;3.85;;;;;;;26.12;59.13;101247.22;5077178;28;20040;-79
2022/06/14 08:04:01;;;;;;;6.03;3.83;;;;;;;26.14;59.14;101249.78;5076525;28;20059;-80
2022/06/14 08:06:46;;;;;;;6.38;3.45;;;;;;;26.17;59.14;101259.44;5077041;28;20412;-79
2022/06/14 08:09:23;;;;;;;10.32;3.65;;;;;;;26.18;59.16;101251.13;5074751;28;20423;-78
2022/06/14 08:11:57;;;;;;;10.82;3.58;;;;;;;26.21;58.83;101258.94;5075355;28;20036;-78
2022/06/14 08:14:32;;;;;;;7.80;3.75;;;;;;;26.24;58.51;101252.31;5074383;28;20048;-78
2022/06/14 08:17:01;;;;;;;6.00;3.58;;;;;;;26.27;58.55;101258.28;5074836;28;20469;-78
2022/06/14 08:19:42;;;;;;;6.82;3.83;;;;;;;26.30;58.34;101260.66;5076203;28;20052;-78
2022/06/14 08:22:16;;;;;;;10.88;3.42;;;;;;;26.31;58.27;101254.19;5076124;28;20045;-78
2022/06/14 08:24:52;;;;;;;5.85;3.60;;;;;;;26.31;58.32;101256.06;5074753;28;20055;-79
2022/06/14 08:27:36;;;;;;;9.75;3.75;;;;;;;26.31;58.55;101258.78;5076254;28;20435;-79
2022/06/14 08:30:08;;;;;;;7.63;4.05;;;;;;;26.32;58.72;101266.75;5076168;28;20511;-79
2022/06/14 08:32:44;;;;;;;10.90;4.80;;;;;;;26.32;58.72;101261.31;5076349;28;20044;-78
2022/06/14 08:35:43;;;;;;;9.45;3.70;;;;;;;26.32;58.68;101264.03;5076114;28;20472;-78
2022/06/14 08:38:13;;;;;;;10.70;4.22;;;;;;;26.32;58.96;101257.75;5074374;28;20037;-78
2022/06/14 08:40:50;;;;;;;8.55;3.95;;;;;;;26.31;58.91;101277.78;5074506;28;20048;-78
2022/06/14 08:43:45;;;;;;;8.27;4.35;;;;;;;26.34;59.37;101263.88;5074504;28;20048;-78
2022/06/14 08:46:28;;;;;;;9.48;4.75;;;;;;;26.37;58.85;101269.84;5073786;28;20048;-78
2022/06/14 08:49:30;;;;;;;7.70;4.28;;;;;;;26.37;58.92;101275.25;5074127;28;20049;-78
2022/06/14 08:52:28;;;;;;;8.75;4.38;;;;;;;26.38;58.81;101267.97;5074545;28;20049;-78
2022/06/14 08:54:56;;;;;;;6.72;3.25;;;;;;;26.38;59.11;101274.25;5075334;28;20044;-79
2022/06/14 08:57:26;;;;;;;11.90;4.72;;;;;;;26.38;59.25;101270.69;5075507;28;20395;-78
2022/06/14 09:00:03;;;;;;;7.95;4.07;;;;;;;26.39;58.56;101270.50;5075381;28;20048;-77
2022/06/14 09:02:42;;;;;;;12.73;4.32;;;;;;;26.43;58.21;101262.03;5074761;28;20044;-76
2022/06/14 09:06:01;;;;;;;7.82;3.53;;;;;;;26.45;58.30;101260.84;5075510;28;20053;-77
2022/06/14 09:08:57;;;;;;;7.80;3.90;;;;;;;26.49;57.51;101266.78;5071792;28;20048;-78
2022/06/14 09:12:02;;;;;;;7.10;3.45;;;;;;;26.50;57.80;101269.38;5075252;28;20053;-78
2022/06/14 09:14:52;;;;;;;9.80;3.53;;;;;;;26.49;57.87;101262.22;5074140;28;20510;-78
2022/06/14 09:17:43;;;;;;;7.80;3.85;;;;;;;26.49;58.02;101273.06;5075349;28;20511;-78
2022/06/14 09:20:47;;;;;;;7.95;3.88;;;;;;;26.46;57.99;101267.16;5073286;28;20052;-77
2022/06/14 09:23:37;;;;;;;6.75;4.32;;;;;;;26.45;58.14;101266.28;5075036;28;20055;-77
2022/06/14 09:26:17;;;;;;;7.53;3.83;;;;;;;26.43;57.84;101262.88;5074944;28;20471;-78
2022/06/14 09:29:11;;;;;;;14.45;4.95;;;;;;;26.44;57.49;101263.72;5073270;28;20060;-77
2022/06/14 09:31:58;;;;;;;10.38;4.78;;;;;;;26.44;57.33;101266.44;5074567;28;20052;-77
2022/06/14 09:34:52;;;;;;;9.50;4.38;;;;;;;26.46;57.12;101265.28;5074641;28;20044;-77
2022/06/14 09:37:40;;;;;;;5.55;3.63;;;;;;;26.49;57.16;101258.66;5075013;28;20381;-77
2022/06/14 09:40:41;;;;;;;6.38;4.05;;;;;;;26.55;56.76;101266.97;5074753;28;20075;-77
2022/06/14 09:43:21;;;;;;;7.47;3.90;;;;;;;26.56;56.75;101257.81;5074320;28;20048;-77
2022/06/14 09:46:25;;;;;;;6.22;3.95;;;;;;;26.55;56.91;101255.28;5074328;28;20052;-76
2022/06/14 09:49:04;;;;;;;7.25;4.72;;;;;;;26.55;56.97;101258.00;5074269;28;20057;-76
2022/06/14 09:51:53;;;;;;;11.00;4.30;;;;;;;26.53;56.86;101250.00;5073673;28;20063;-76
2022/06/14 09:54:32;;;;;;;11.02;4.20;;;;;;;26.53;57.16;101252.72;5074029;28;20476;-77
2022/06/14 09:57:30;;;;;;;8.18;4.32;;;;;;;26.51;56.97;101251.19;5073980;28;20071;-77
2022/06/14 10:00:16;;;;;;;10.88;4.30;;;;;;;26.50;57.35;101253.06;5073859;28;20059;-77
2022/06/14 10:03:02;;;;;;;8.68;4.07;;;;;;;26.49;57.60;101251.34;5073918;28;20044;-77
2022/06/14 10:05:35;;;;;;;12.32;4.93;;;;;;;26.50;57.73;101254.94;5073722;28;20051;-77
2022/06/14 10:08:24;;;;;;;7.90;4.25;;;;;;;26.49;57.55;101251.34;5073975;28;20507;-77
2022/06/14 10:10:57;;;;;;;9.35;4.70;;;;;;;26.49;57.42;101245.91;5073659;28;20051;-77
2022/06/14 10:13:35;;;;;;;11.55;3.97;;;;;;;26.51;56.92;101254.75;5074197;28;20048;-77
2022/06/14 10:16:05;;;;;;;8.32;4.63;;;;;;;26.54;56.45;101249.00;5074013;28;20048;-76
2022/06/14 10:19:12;;;;;;;8.25;4.47;;;;;;;26.54;56.90;101237.28;5072555;28;20044;-76
2022/06/14 10:21:46;;;;;;;12.20;4.75;;;;;;;26.55;56.76;101244.41;5073323;28;20044;-76
2022/06/14 10:24:19;;;;;;;5.47;3.65;;;;;;;26.54;56.66;101249.00;5072500;28;20048;-77
2022/06/14 10:30:16;;;;;;;7.88;3.72;;;;;;;26.55;56.49;101247.97;5070853;28;20130;-76
2022/06/14 10:33:11;;;;;;;9.05;3.67;;;;;;;26.55;56.30;101234.41;5058890;28;20037;-76
2022/06/14 10:35:58;;;;;;;9.15;3.97;;;;;;;26.55;56.41;101239.81;5053242;28;20509;-76
2022/06/14 10:38:47;;;;;;;5.20;3.40;;;;;;;26.55;56.21;101242.53;5053318;28;20049;-76
2022/06/14 10:41:35;;;;;;;7.95;3.88;;;;;;;26.57;56.02;101243.22;5051613;28;20048;-77
2022/06/14 10:44:14;;;;;;;8.80;3.53;;;;;;;26.60;55.69;101242.03;5053265;28;20045;-76
2022/06/14 10:47:08;;;;;;;8.02;3.85;;;;;;;26.60;55.75;101239.31;5053224;28;20053;-76
2022/06/14 10:49:36;;;;;;;8.52;4.53;;;;;;;26.60;55.71;101236.59;5051482;28;20064;-77
2022/06/14 10:52:04;;;;;;;7.70;4.28;;;;;;;26.60;55.88;101232.00;5053121;28;20476;-77
2022/06/14 10:54:56;;;;;;;8.07;4.07;;;;;;;26.59;55.75;101241.19;5052972;28;20045;-76
2022/06/14 10:57:50;;;;;;;6.22;3.95;;;;;;;26.60;55.83;101242.03;5052464;28;20052;-75
2022/06/14 11:00:30;;;;;;;10.93;3.83;;;;;;;26.59;55.24;101234.91;5053263;28;20503;-77
2022/06/14 11:03:21;;;;;;;10.20;4.13;;;;;;;26.60;54.60;101237.44;5053033;28;20037;-77
2022/06/14 11:06:03;;;;;;;7.03;3.47;;;;;;;26.59;54.89;101238.47;5050360;28;20061;-77
2022/06/14 11:08:52;;;;;;;7.90;4.07;;;;;;;26.63;54.73;101233.56;5053456;28;20048;-77
2022/06/14 11:11:29;;;;;;;6.22;3.92;;;;;;;26.62;54.72;101243.56;5052936;28;20285;-77
2022/06/14 11:14:17;;;;;;;10.90;4.03;;;;;;;26.66;53.71;101240.50;5052109;28;20037;-78
2022/06/14 11:17:28;;;;;;;8.90;4.13;;;;;;;26.73;53.10;101227.94;5052655;28;20052;-79
2022/06/14 11:19:58;;;;;;;11.82;3.67;;;;;;;26.85;52.65;101234.69;5052414;28;20060;-78
2022/06/14 11:22:41;;;;;;;7.53;3.53;;;;;;;26.99;52.01;101234.03;5052915;28;20400;-77
2022/06/14 11:25:28;;;;;;;10.10;4.07;;;;;;;27.06;51.80;101236.88;5051632;28;20060;-78
2022/06/14 11:28:14;;;;;;;6.65;3.50;;;;;;;27.02;52.30;101230.09;5053567;28;20100;-77
2022/06/14 11:31:03;;;;;;;6.40;3.40;;;;;;;27.07;51.23;101239.44;5052976;28;20041;-77
2022/06/14 11:33:57;;;;;;;9.50;3.78;;;;;;;27.02;51.62;101236.41;5053786;28;20045;-77
2022/06/14 11:36:49;;;;;;;7.97;3.75;;;;;;;27.03;51.16;101227.22;5051584;28;20053;-77
2022/06/14 11:39:54;;;;;;;6.57;3.53;;;;;;;26.99;52.20;101228.59;5051298;28;20052;-78
2022/06/14 11:42:27;;;;;;;8.35;3.88;;;;;;;27.00;51.48;101230.28;5052684;28;20507;-77
2022/06/14 11:45:24;;;;;;;4.95;3.63;;;;;;;27.14;50.85;101236.88;5051258;28;20104;-77
2022/06/14 11:48:03;;;;;;;4.78;3.08;;;;;;;27.09;51.55;101221.06;5052883;28;20041;-77
2022/06/14 11:50:39;;;;;;;8.23;3.58;;;;;;;27.03;51.89;101231.81;5067481;28;20068;-77
2022/06/14 11:53:16;;;;;;;9.52;3.28;;;;;;;27.01;52.03;101220.25;5052448;28;20089;-77
2022/06/14 11:55:51;;;;;;;5.05;3.33;;;;;;;27.05;51.71;101227.03;5051426;28;20045;-77
2022/06/14 11:58:24;;;;;;;10.88;4.45;;;;;;;27.01;52.46;101222.97;5052532;28;20048;-77
2022/06/14 12:00:55;;;;;;;10.55;3.97;;;;;;;26.97;52.41;101217.03;5051118;28;20045;-79
2022/06/14 12:03:28;;;;;;;11.23;4.07;;;;;;;26.96;52.70;101217.22;5052241;28;20052;-79
2022/06/14 12:06:33;;;;;;;12.05;4.20;;;;;;;27.04;51.80;101209.88;5050665;28;20037;-80
2022/06/14 12:09:20;;;;;;;9.07;3.53;;;;;;;27.13;51.05;101210.72;5051757;28;20451;-78
2022/06/14 12:12:06;;;;;;;11.02;3.72;;;;;;;27.09;51.88;101207.47;5052501;28;20049;-78
2022/06/14 12:14:39;;;;;;;7.90;3.63;;;;;;;27.05;52.18;101200.69;5051206;28;20052;-78
2022/06/14 12:17:22;;;;;;;7.63;3.65;;;;;;;27.01;52.52;101206.66;5050732;28;20059;-77
2022/06/14 12:20:05;;;;;;;9.23;3.33;;;;;;;26.96;52.35;101199.03;5051949;28;20055;-78
2022/06/14 12:22:42;;;;;;;9.45;3.88;;;;;;;26.93;52.63;101191.22;5053077;28;20041;-78
2022/06/14 12:28:26;;;;;;;11.43;3.90;;;;;;;26.87;52.85;101194.66;5055613;28;20052;-77
2022/06/14 12:31:13;;;;;;;10.55;3.63;;;;;;;26.85;52.72;101196.66;5056658;28;20044;-77
2022/06/14 12:33:59;;;;;;;6.18;3.80;;;;;;;26.83;52.97;101204.16;5064099;28;20044;-77
2022/06/14 12:36:56;;;;;;;6.38;3.40;;;;;;;26.81;52.73;101185.31;5055673;28;20052;-77